sensor_id;sensor_type;location;lat;lon;timestamp;P1;durP1;ratioP1;P2;durP2;ratioP2
23159;SDS011;11748;50.844;4.396;2023-04-24T00:01:47;19.63;;;11.73;;
23159;SDS011;11748;50.844;4.396;2023-04-24T00:04:13;23.90;;;12.27;;
23159;SDS011;11748;50.844;4.396;2023-04-24T00:06:41;16.38;;;11.00;;
23159;SDS011;11748;50.844;4.396;2023-04-24T00:09:08;17.90;;;11.20;;
23159;SDS011;11748;50.844;4.396;2023-04-24T00:11:35;22.63;;;12.43;;
23159;SDS011;11748;50.844;4.396;2023-04-24T00:14:01;22.98;;;11.77;;
23159;SDS011;11748;50.844;4.396;2023-04-24T00:16:27;18.38;;;12.48;;
23159;SDS011;11748;50.844;4.396;2023-04-24T00:18:53;19.45;;;13.27;;
23159;SDS011;11748;50.844;4.396;2023-04-24T00:21:19;24.38;;;13.10;;
23159;SDS011;11748;50.844;4.396;2023-04-24T00:23:46;22.30;;;12.80;;
23159;SDS011;11748;50.844;4.396;2023-04-24T00:26:12;22.77;;;14.00;;
23159;SDS011;11748;50.844;4.396;2023-04-24T00:28:38;18.67;;;13.35;;
23159;SDS011;11748;50.844;4.396;2023-04-24T00:31:04;21.52;;;13.77;;
23159;SDS011;11748;50.844;4.396;2023-04-24T00:33:30;22.60;;;13.52;;
23159;SDS011;11748;50.844;4.396;2023-04-24T00:35:55;29.40;;;13.77;;
23159;SDS011;11748;50.844;4.396;2023-04-24T00:38:21;20.73;;;12.55;;
23159;SDS011;11748;50.844;4.396;2023-04-24T00:40:47;30.13;;;13.90;;
23159;SDS011;11748;50.844;4.396;2023-04-24T00:43:15;14.23;;;12.20;;
23159;SDS011;11748;50.844;4.396;2023-04-24T00:45:41;27.15;;;13.55;;
23159;SDS011;11748;50.844;4.396;2023-04-24T00:48:07;24.25;;;13.32;;
23159;SDS011;11748;50.844;4.396;2023-04-24T00:50:33;20.05;;;13.20;;
23159;SDS011;11748;50.844;4.396;2023-04-24T00:53:00;21.45;;;13.02;;
23159;SDS011;11748;50.844;4.396;2023-04-24T00:55:26;25.98;;;13.68;;
23159;SDS011;11748;50.844;4.396;2023-04-24T00:57:52;23.27;;;13.05;;
23159;SDS011;11748;50.844;4.396;2023-04-24T01:00:18;22.67;;;13.40;;
23159;SDS011;11748;50.844;4.396;2023-04-24T01:02:44;23.38;;;12.77;;
23159;SDS011;11748;50.844;4.396;2023-04-24T01:05:11;21.40;;;12.60;;
23159;SDS011;11748;50.844;4.396;2023-04-24T01:07:39;24.63;;;13.07;;
23159;SDS011;11748;50.844;4.396;2023-04-24T01:10:08;22.35;;;12.85;;
23159;SDS011;11748;50.844;4.396;2023-04-24T01:12:34;22.83;;;13.43;;
23159;SDS011;11748;50.844;4.396;2023-04-24T01:15:01;22.70;;;13.13;;
23159;SDS011;11748;50.844;4.396;2023-04-24T01:17:28;24.58;;;13.27;;
23159;SDS011;11748;50.844;4.396;2023-04-24T01:19:54;18.88;;;12.95;;
23159;SDS011;11748;50.844;4.396;2023-04-24T01:22:21;22.40;;;12.55;;
23159;SDS011;11748;50.844;4.396;2023-04-24T01:24:47;21.00;;;12.98;;
23159;SDS011;11748;50.844;4.396;2023-04-24T01:27:13;23.92;;;12.77;;
23159;SDS011;11748;50.844;4.396;2023-04-24T01:29:39;18.48;;;12.73;;
23159;SDS011;11748;50.844;4.396;2023-04-24T01:32:06;20.35;;;12.77;;
23159;SDS011;11748;50.844;4.396;2023-04-24T01:34:32;15.95;;;11.95;;
23159;SDS011;11748;50.844;4.396;2023-04-24T01:36:59;18.95;;;12.02;;
23159;SDS011;11748;50.844;4.396;2023-04-24T01:39:25;17.45;;;11.20;;
23159;SDS011;11748;50.844;4.396;2023-04-24T01:41:53;18.95;;;11.48;;
23159;SDS011;11748;50.844;4.396;2023-04-24T01:44:20;16.55;;;10.95;;
23159;SDS011;11748;50.844;4.396;2023-04-24T01:46:46;17.33;;;11.32;;
23159;SDS011;11748;50.844;4.396;2023-04-24T01:49:12;15.25;;;10.98;;
23159;SDS011;11748;50.844;4.396;2023-04-24T01:51:38;13.88;;;10.77;;
23159;SDS011;11748;50.844;4.396;2023-04-24T01:54:04;16.55;;;10.68;;
23159;SDS011;11748;50.844;4.396;2023-04-24T01:56:31;18.02;;;11.70;;
23159;SDS011;11748;50.844;4.396;2023-04-24T01:58:58;17.35;;;11.85;;
23159;SDS011;11748;50.844;4.396;2023-04-24T02:01:25;18.20;;;11.45;;
23159;SDS011;11748;50.844;4.396;2023-04-24T02:03:51;17.30;;;11.00;;
23159;SDS011;11748;50.844;4.396;2023-04-24T02:06:17;16.48;;;11.10;;
23159;SDS011;11748;50.844;4.396;2023-04-24T02:08:42;16.90;;;11.85;;
23159;SDS011;11748;50.844;4.396;2023-04-24T02:11:08;17.63;;;11.88;;
23159;SDS011;11748;50.844;4.396;2023-04-24T02:13:34;20.13;;;12.70;;
23159;SDS011;11748;50.844;4.396;2023-04-24T02:16:00;17.40;;;13.85;;
23159;SDS011;11748;50.844;4.396;2023-04-24T02:18:26;19.77;;;12.75;;
23159;SDS011;11748;50.844;4.396;2023-04-24T02:20:52;20.52;;;13.73;;
23159;SDS011;11748;50.844;4.396;2023-04-24T02:23:18;17.20;;;13.80;;
23159;SDS011;11748;50.844;4.396;2023-04-24T02:25:44;19.15;;;13.27;;
23159;SDS011;11748;50.844;4.396;2023-04-24T02:28:10;20.45;;;14.38;;
23159;SDS011;11748;50.844;4.396;2023-04-24T02:30:36;21.35;;;13.73;;
23159;SDS011;11748;50.844;4.396;2023-04-24T02:33:03;19.27;;;13.63;;
23159;SDS011;11748;50.844;4.396;2023-04-24T02:35:29;18.75;;;13.70;;
23159;SDS011;11748;50.844;4.396;2023-04-24T02:37:55;23.55;;;13.35;;
23159;SDS011;11748;50.844;4.396;2023-04-24T02:40:20;19.52;;;13.60;;
23159;SDS011;11748;50.844;4.396;2023-04-24T02:42:46;18.90;;;13.63;;
23159;SDS011;11748;50.844;4.396;2023-04-24T02:45:12;20.13;;;14.00;;
23159;SDS011;11748;50.844;4.396;2023-04-24T02:47:37;18.52;;;13.52;;
23159;SDS011;11748;50.844;4.396;2023-04-24T02:50:03;18.05;;;12.38;;
23159;SDS011;11748;50.844;4.396;2023-04-24T02:52:29;22.83;;;13.07;;
23159;SDS011;11748;50.844;4.396;2023-04-24T02:54:55;17.40;;;12.40;;
23159;SDS011;11748;50.844;4.396;2023-04-24T02:57:21;16.77;;;12.77;;
23159;SDS011;11748;50.844;4.396;2023-04-24T02:59:47;18.08;;;12.80;;
23159;SDS011;11748;50.844;4.396;2023-04-24T03:02:12;20.80;;;12.85;;
23159;SDS011;11748;50.844;4.396;2023-04-24T03:04:38;18.90;;;12.80;;
23159;SDS011;11748;50.844;4.396;2023-04-24T03:07:05;17.20;;;11.70;;
23159;SDS011;11748;50.844;4.396;2023-04-24T03:09:31;15.73;;;11.65;;
23159;SDS011;11748;50.844;4.396;2023-04-24T03:11:56;15.13;;;11.63;;
23159;SDS011;11748;50.844;4.396;2023-04-24T03:14:23;20.08;;;10.98;;
23159;SDS011;11748;50.844;4.396;2023-04-24T03:16:49;15.50;;;11.50;;
23159;SDS011;11748;50.844;4.396;2023-04-24T03:19:15;14.98;;;10.48;;
23159;SDS011;11748;50.844;4.396;2023-04-24T03:21:41;15.00;;;9.98;;
23159;SDS011;11748;50.844;4.396;2023-04-24T03:24:07;16.95;;;10.02;;
23159;SDS011;11748;50.844;4.396;2023-04-24T03:26:33;12.48;;;9.57;;
23159;SDS011;11748;50.844;4.396;2023-04-24T03:29:00;13.95;;;10.23;;
23159;SDS011;11748;50.844;4.396;2023-04-24T03:31:26;14.50;;;9.77;;
23159;SDS011;11748;50.844;4.396;2023-04-24T03:33:51;15.77;;;10.20;;
23159;SDS011;11748;50.844;4.396;2023-04-24T03:36:17;14.48;;;9.85;;
23159;SDS011;11748;50.844;4.396;2023-04-24T03:38:44;15.43;;;9.82;;
23159;SDS011;11748;50.844;4.396;2023-04-24T03:41:10;17.05;;;9.98;;
23159;SDS011;11748;50.844;4.396;2023-04-24T03:43:36;18.10;;;10.82;;
23159;SDS011;11748;50.844;4.396;2023-04-24T03:46:02;13.05;;;9.45;;
23159;SDS011;11748;50.844;4.396;2023-04-24T03:48:28;13.82;;;9.20;;
23159;SDS011;11748;50.844;4.396;2023-04-24T03:50:54;14.70;;;9.10;;
23159;SDS011;11748;50.844;4.396;2023-04-24T03:53:20;13.52;;;9.07;;
23159;SDS011;11748;50.844;4.396;2023-04-24T03:55:46;13.18;;;9.48;;
23159;SDS011;11748;50.844;4.396;2023-04-24T03:58:12;13.40;;;8.90;;
23159;SDS011;11748;50.844;4.396;2023-04-24T04:00:39;12.13;;;8.55;;
23159;SDS011;11748;50.844;4.396;2023-04-24T04:03:05;12.38;;;8.45;;
23159;SDS011;11748;50.844;4.396;2023-04-24T04:05:31;13.13;;;8.60;;
23159;SDS011;11748;50.844;4.396;2023-04-24T04:07:57;12.15;;;7.43;;
23159;SDS011;11748;50.844;4.396;2023-04-24T04:10:23;9.55;;;7.22;;
23159;SDS011;11748;50.844;4.396;2023-04-24T04:12:49;9.55;;;7.05;;
23159;SDS011;11748;50.844;4.396;2023-04-24T04:15:15;11.75;;;8.10;;
23159;SDS011;11748;50.844;4.396;2023-04-24T04:17:40;9.15;;;7.25;;
23159;SDS011;11748;50.844;4.396;2023-04-24T04:20:06;10.50;;;7.10;;
23159;SDS011;11748;50.844;4.396;2023-04-24T04:22:35;8.32;;;7.43;;
23159;SDS011;11748;50.844;4.396;2023-04-24T04:25:01;8.25;;;6.78;;
23159;SDS011;11748;50.844;4.396;2023-04-24T04:27:28;8.63;;;6.75;;
23159;SDS011;11748;50.844;4.396;2023-04-24T04:29:57;9.13;;;6.22;;
23159;SDS011;11748;50.844;4.396;2023-04-24T04:32:24;6.93;;;6.20;;
23159;SDS011;11748;50.844;4.396;2023-04-24T04:34:51;9.73;;;6.40;;
23159;SDS011;11748;50.844;4.396;2023-04-24T04:37:18;8.25;;;6.53;;
23159;SDS011;11748;50.844;4.396;2023-04-24T04:39:44;9.45;;;6.60;;
23159;SDS011;11748;50.844;4.396;2023-04-24T04:42:10;9.20;;;6.68;;
23159;SDS011;11748;50.844;4.396;2023-04-24T04:44:35;8.55;;;6.30;;
23159;SDS011;11748;50.844;4.396;2023-04-24T04:47:01;8.35;;;6.32;;
23159;SDS011;11748;50.844;4.396;2023-04-24T04:49:30;9.07;;;5.95;;
23159;SDS011;11748;50.844;4.396;2023-04-24T04:51:56;9.23;;;6.63;;
23159;SDS011;11748;50.844;4.396;2023-04-24T04:54:22;9.30;;;7.20;;
23159;SDS011;11748;50.844;4.396;2023-04-24T04:56:51;14.13;;;7.80;;
23159;SDS011;11748;50.844;4.396;2023-04-24T04:59:16;11.07;;;8.57;;
23159;SDS011;11748;50.844;4.396;2023-04-24T05:01:42;13.93;;;8.85;;
23159;SDS011;11748;50.844;4.396;2023-04-24T05:04:08;12.18;;;8.90;;
23159;SDS011;11748;50.844;4.396;2023-04-24T05:06:34;17.55;;;10.63;;
23159;SDS011;11748;50.844;4.396;2023-04-24T05:08:59;15.05;;;9.93;;
23159;SDS011;11748;50.844;4.396;2023-04-24T05:11:25;14.30;;;11.05;;
23159;SDS011;11748;50.844;4.396;2023-04-24T05:13:51;14.68;;;10.30;;
23159;SDS011;11748;50.844;4.396;2023-04-24T05:16:17;19.02;;;10.88;;
23159;SDS011;11748;50.844;4.396;2023-04-24T05:18:42;18.00;;;10.95;;
23159;SDS011;11748;50.844;4.396;2023-04-24T05:21:08;16.75;;;10.38;;
23159;SDS011;11748;50.844;4.396;2023-04-24T05:23:34;14.93;;;10.75;;
23159;SDS011;11748;50.844;4.396;2023-04-24T05:26:00;16.35;;;10.80;;
23159;SDS011;11748;50.844;4.396;2023-04-24T05:28:25;16.83;;;11.43;;
23159;SDS011;11748;50.844;4.396;2023-04-24T05:30:53;17.20;;;11.38;;
23159;SDS011;11748;50.844;4.396;2023-04-24T05:33:20;19.42;;;11.27;;
23159;SDS011;11748;50.844;4.396;2023-04-24T05:35:47;14.85;;;10.90;;
23159;SDS011;11748;50.844;4.396;2023-04-24T05:38:13;20.27;;;11.25;;
23159;SDS011;11748;50.844;4.396;2023-04-24T05:40:42;19.38;;;11.43;;
23159;SDS011;11748;50.844;4.396;2023-04-24T05:43:08;20.52;;;11.23;;
23159;SDS011;11748;50.844;4.396;2023-04-24T05:45:34;17.25;;;10.82;;
23159;SDS011;11748;50.844;4.396;2023-04-24T05:48:01;16.25;;;10.73;;
23159;SDS011;11748;50.844;4.396;2023-04-24T05:50:27;17.63;;;11.35;;
23159;SDS011;11748;50.844;4.396;2023-04-24T05:52:53;14.57;;;10.95;;
23159;SDS011;11748;50.844;4.396;2023-04-24T05:55:19;18.02;;;11.68;;
23159;SDS011;11748;50.844;4.396;2023-04-24T05:57:45;18.05;;;11.48;;
23159;SDS011;11748;50.844;4.396;2023-04-24T06:00:11;16.10;;;11.48;;
23159;SDS011;11748;50.844;4.396;2023-04-24T06:02:37;15.98;;;11.30;;
23159;SDS011;11748;50.844;4.396;2023-04-24T06:05:04;14.95;;;11.10;;
23159;SDS011;11748;50.844;4.396;2023-04-24T06:07:32;18.05;;;11.57;;
23159;SDS011;11748;50.844;4.396;2023-04-24T06:09:59;21.58;;;12.40;;
23159;SDS011;11748;50.844;4.396;2023-04-24T06:12:26;17.00;;;12.15;;
23159;SDS011;11748;50.844;4.396;2023-04-24T06:14:52;18.70;;;11.48;;
23159;SDS011;11748;50.844;4.396;2023-04-24T06:17:20;20.27;;;11.82;;
23159;SDS011;11748;50.844;4.396;2023-04-24T06:19:46;22.15;;;12.65;;
23159;SDS011;11748;50.844;4.396;2023-04-24T06:22:12;18.35;;;12.32;;
23159;SDS011;11748;50.844;4.396;2023-04-24T06:24:41;22.58;;;12.32;;
23159;SDS011;11748;50.844;4.396;2023-04-24T06:27:07;22.98;;;12.85;;
23159;SDS011;11748;50.844;4.396;2023-04-24T06:29:33;20.95;;;13.15;;
23159;SDS011;11748;50.844;4.396;2023-04-24T06:31:59;21.10;;;13.13;;
23159;SDS011;11748;50.844;4.396;2023-04-24T06:34:25;23.73;;;13.05;;
23159;SDS011;11748;50.844;4.396;2023-04-24T06:36:53;19.05;;;13.32;;
23159;SDS011;11748;50.844;4.396;2023-04-24T06:39:20;20.88;;;14.38;;
23159;SDS011;11748;50.844;4.396;2023-04-24T06:41:47;23.35;;;14.43;;
23159;SDS011;11748;50.844;4.396;2023-04-24T06:44:15;25.65;;;14.38;;
23159;SDS011;11748;50.844;4.396;2023-04-24T06:46:42;22.08;;;13.65;;
23159;SDS011;11748;50.844;4.396;2023-04-24T06:49:10;21.10;;;14.50;;
23159;SDS011;11748;50.844;4.396;2023-04-24T06:51:38;26.58;;;14.80;;
23159;SDS011;11748;50.844;4.396;2023-04-24T06:54:06;26.80;;;15.00;;
23159;SDS011;11748;50.844;4.396;2023-04-24T06:56:33;24.58;;;14.93;;
23159;SDS011;11748;50.844;4.396;2023-04-24T06:59:00;25.17;;;15.57;;
23159;SDS011;11748;50.844;4.396;2023-04-24T07:01:27;29.63;;;15.35;;
23159;SDS011;11748;50.844;4.396;2023-04-24T07:03:55;22.15;;;14.88;;
23159;SDS011;11748;50.844;4.396;2023-04-24T07:06:22;29.17;;;15.60;;
23159;SDS011;11748;50.844;4.396;2023-04-24T07:08:51;24.27;;;15.48;;
23159;SDS011;11748;50.844;4.396;2023-04-24T07:11:18;28.38;;;15.10;;
23159;SDS011;11748;50.844;4.396;2023-04-24T07:13:46;26.73;;;15.38;;
23159;SDS011;11748;50.844;4.396;2023-04-24T07:16:14;26.55;;;14.55;;
23159;SDS011;11748;50.844;4.396;2023-04-24T07:18:42;22.92;;;13.93;;
23159;SDS011;11748;50.844;4.396;2023-04-24T07:21:10;26.20;;;15.15;;
23159;SDS011;11748;50.844;4.396;2023-04-24T07:23:37;26.20;;;14.38;;
23159;SDS011;11748;50.844;4.396;2023-04-24T07:26:07;19.40;;;13.50;;
23159;SDS011;11748;50.844;4.396;2023-04-24T07:28:34;20.35;;;12.48;;
23159;SDS011;11748;50.844;4.396;2023-04-24T07:31:02;25.25;;;12.65;;
23159;SDS011;11748;50.844;4.396;2023-04-24T07:33:30;19.55;;;10.88;;
23159;SDS011;11748;50.844;4.396;2023-04-24T07:35:58;13.43;;;9.30;;
23159;SDS011;11748;50.844;4.396;2023-04-24T07:38:26;14.63;;;9.57;;
23159;SDS011;11748;50.844;4.396;2023-04-24T07:40:54;14.23;;;9.98;;
23159;SDS011;11748;50.844;4.396;2023-04-24T07:43:21;12.88;;;8.38;;
23159;SDS011;11748;50.844;4.396;2023-04-24T07:45:52;12.60;;;7.65;;
23159;SDS011;11748;50.844;4.396;2023-04-24T07:48:20;18.27;;;9.05;;
23159;SDS011;11748;50.844;4.396;2023-04-24T07:50:51;14.30;;;9.52;;
23159;SDS011;11748;50.844;4.396;2023-04-24T07:53:18;19.83;;;11.20;;
23159;SDS011;11748;50.844;4.396;2023-04-24T07:55:45;23.48;;;11.90;;
23159;SDS011;11748;50.844;4.396;2023-04-24T07:58:12;19.58;;;12.02;;
23159;SDS011;11748;50.844;4.396;2023-04-24T08:00:40;21.40;;;12.85;;
23159;SDS011;11748;50.844;4.396;2023-04-24T08:03:08;20.60;;;12.15;;
23159;SDS011;11748;50.844;4.396;2023-04-24T08:05:36;23.65;;;11.73;;
23159;SDS011;11748;50.844;4.396;2023-04-24T08:08:04;20.90;;;11.80;;
23159;SDS011;11748;50.844;4.396;2023-04-24T08:10:32;22.63;;;10.90;;
23159;SDS011;11748;50.844;4.396;2023-04-24T08:12:59;15.13;;;10.15;;
23159;SDS011;11748;50.844;4.396;2023-04-24T08:15:27;18.48;;;10.02;;
23159;SDS011;11748;50.844;4.396;2023-04-24T08:17:54;17.20;;;9.48;;
23159;SDS011;11748;50.844;4.396;2023-04-24T08:20:23;19.00;;;9.68;;
23159;SDS011;11748;50.844;4.396;2023-04-24T08:22:51;16.40;;;7.93;;
23159;SDS011;11748;50.844;4.396;2023-04-24T08:25:19;15.77;;;8.68;;
23159;SDS011;11748;50.844;4.396;2023-04-24T08:27:48;13.88;;;7.47;;
23159;SDS011;11748;50.844;4.396;2023-04-24T08:30:15;18.65;;;8.43;;
23159;SDS011;11748;50.844;4.396;2023-04-24T08:32:43;15.40;;;7.38;;
23159;SDS011;11748;50.844;4.396;2023-04-24T08:35:10;15.95;;;7.50;;
23159;SDS011;11748;50.844;4.396;2023-04-24T08:37:39;15.05;;;7.35;;
23159;SDS011;11748;50.844;4.396;2023-04-24T08:40:12;12.88;;;6.60;;
23159;SDS011;11748;50.844;4.396;2023-04-24T08:42:41;11.60;;;6.60;;
23159;SDS011;11748;50.844;4.396;2023-04-24T08:45:10;17.17;;;6.65;;
23159;SDS011;11748;50.844;4.396;2023-04-24T08:47:39;14.43;;;6.97;;
23159;SDS011;11748;50.844;4.396;2023-04-24T08:50:11;16.38;;;6.47;;
23159;SDS011;11748;50.844;4.396;2023-04-24T08:52:40;13.13;;;6.60;;
23159;SDS011;11748;50.844;4.396;2023-04-24T08:55:10;14.65;;;7.10;;
23159;SDS011;11748;50.844;4.396;2023-04-24T08:57:44;12.45;;;6.32;;
23159;SDS011;11748;50.844;4.396;2023-04-24T09:00:16;11.50;;;5.78;;
23159;SDS011;11748;50.844;4.396;2023-04-24T09:02:44;19.80;;;5.82;;
23159;SDS011;11748;50.844;4.396;2023-04-24T09:05:16;11.90;;;6.25;;
23159;SDS011;11748;50.844;4.396;2023-04-24T09:07:50;14.10;;;5.43;;
23159;SDS011;11748;50.844;4.396;2023-04-24T09:10:22;11.48;;;4.97;;
23159;SDS011;11748;50.844;4.396;2023-04-24T09:12:56;10.45;;;4.82;;
23159;SDS011;11748;50.844;4.396;2023-04-24T09:15:27;8.93;;;4.30;;
23159;SDS011;11748;50.844;4.396;2023-04-24T09:17:55;10.27;;;4.53;;
23159;SDS011;11748;50.844;4.396;2023-04-24T09:20:23;10.43;;;4.80;;
23159;SDS011;11748;50.844;4.396;2023-04-24T09:22:53;10.77;;;4.68;;
23159;SDS011;11748;50.844;4.396;2023-04-24T09:25:23;8.57;;;4.18;;
23159;SDS011;11748;50.844;4.396;2023-04-24T09:28:03;8.63;;;4.05;;
23159;SDS011;11748;50.844;4.396;2023-04-24T09:30:33;8.10;;;4.40;;
23159;SDS011;11748;50.844;4.396;2023-04-24T09:33:15;9.80;;;4.53;;
23159;SDS011;11748;50.844;4.396;2023-04-24T09:35:52;9.18;;;4.20;;
23159;SDS011;11748;50.844;4.396;2023-04-24T09:38:22;10.65;;;4.45;;
23159;SDS011;11748;50.844;4.396;2023-04-24T09:41:16;12.98;;;4.63;;
23159;SDS011;11748;50.844;4.396;2023-04-24T09:43:44;7.45;;;3.97;;
23159;SDS011;11748;50.844;4.396;2023-04-24T09:46:11;9.23;;;3.90;;
23159;SDS011;11748;50.844;4.396;2023-04-24T09:48:39;12.70;;;4.07;;
23159;SDS011;11748;50.844;4.396;2023-04-24T09:51:07;9.13;;;4.00;;
23159;SDS011;11748;50.844;4.396;2023-04-24T09:53:37;7.72;;;4.03;;
23159;SDS011;11748;50.844;4.396;2023-04-24T09:56:09;9.07;;;3.60;;
23159;SDS011;11748;50.844;4.396;2023-04-24T09:58:46;9.80;;;4.13;;
23159;SDS011;11748;50.844;4.396;2023-04-24T10:01:13;7.13;;;3.97;;
23159;SDS011;11748;50.844;4.396;2023-04-24T10:03:41;9.50;;;4.15;;
23159;SDS011;11748;50.844;4.396;2023-04-24T10:06:11;5.60;;;3.30;;
23159;SDS011;11748;50.844;4.396;2023-04-24T10:08:37;10.70;;;4.88;;
23159;SDS011;11748;50.844;4.396;2023-04-24T10:11:03;7.60;;;3.80;;
23159;SDS011;11748;50.844;4.396;2023-04-24T10:13:30;8.52;;;3.67;;
23159;SDS011;11748;50.844;4.396;2023-04-24T10:16:00;8.45;;;4.03;;
23159;SDS011;11748;50.844;4.396;2023-04-24T10:18:29;8.70;;;3.92;;
23159;SDS011;11748;50.844;4.396;2023-04-24T10:20:57;6.85;;;3.65;;
23159;SDS011;11748;50.844;4.396;2023-04-24T10:23:27;6.22;;;3.65;;
23159;SDS011;11748;50.844;4.396;2023-04-24T10:25:56;9.07;;;4.13;;
23159;SDS011;11748;50.844;4.396;2023-04-24T10:28:24;10.63;;;4.55;;
23159;SDS011;11748;50.844;4.396;2023-04-24T10:30:54;12.25;;;4.30;;
23159;SDS011;11748;50.844;4.396;2023-04-24T10:33:22;12.10;;;4.72;;
23159;SDS011;11748;50.844;4.396;2023-04-24T10:35:50;8.52;;;4.63;;
23159;SDS011;11748;50.844;4.396;2023-04-24T10:38:21;11.50;;;4.68;;
23159;SDS011;11748;50.844;4.396;2023-04-24T10:41:10;9.63;;;4.80;;
23159;SDS011;11748;50.844;4.396;2023-04-24T10:46:37;9.82;;;4.20;;
23159;SDS011;11748;50.844;4.396;2023-04-24T10:49:08;8.75;;;4.45;;
23159;SDS011;11748;50.844;4.396;2023-04-24T10:59:48;6.70;;;4.30;;
23159;SDS011;11748;50.844;4.396;2023-04-24T11:02:17;8.93;;;4.32;;
23159;SDS011;11748;50.844;4.396;2023-04-24T11:05:04;6.55;;;4.20;;
23159;SDS011;11748;50.844;4.396;2023-04-24T11:10:58;8.60;;;4.53;;
23159;SDS011;11748;50.844;4.396;2023-04-24T11:16:32;11.27;;;4.80;;
23159;SDS011;11748;50.844;4.396;2023-04-24T11:24:27;10.85;;;4.63;;
23159;SDS011;11748;50.844;4.396;2023-04-24T11:32:23;7.43;;;4.40;;
23159;SDS011;11748;50.844;4.396;2023-04-24T11:35:22;8.05;;;4.38;;
23159;SDS011;11748;50.844;4.396;2023-04-24T11:37:51;7.82;;;4.40;;
23159;SDS011;11748;50.844;4.396;2023-04-24T11:40:19;6.47;;;4.07;;
23159;SDS011;11748;50.844;4.396;2023-04-24T11:42:53;7.15;;;4.47;;
23159;SDS011;11748;50.844;4.396;2023-04-24T11:45:22;6.82;;;4.20;;
23159;SDS011;11748;50.844;4.396;2023-04-24T11:47:51;6.75;;;4.30;;
23159;SDS011;11748;50.844;4.396;2023-04-24T11:50:26;7.90;;;4.88;;
23159;SDS011;11748;50.844;4.396;2023-04-24T11:52:55;8.20;;;4.57;;
23159;SDS011;11748;50.844;4.396;2023-04-24T11:55:24;9.43;;;5.10;;
23159;SDS011;11748;50.844;4.396;2023-04-24T11:57:53;8.95;;;4.97;;
23159;SDS011;11748;50.844;4.396;2023-04-24T12:00:26;7.32;;;4.63;;
23159;SDS011;11748;50.844;4.396;2023-04-24T12:03:05;7.38;;;4.90;;
23159;SDS011;11748;50.844;4.396;2023-04-24T12:05:33;9.98;;;4.80;;
23159;SDS011;11748;50.844;4.396;2023-04-24T12:08:01;8.25;;;4.50;;
23159;SDS011;11748;50.844;4.396;2023-04-24T12:10:29;7.63;;;4.50;;
23159;SDS011;11748;50.844;4.396;2023-04-24T12:12:58;8.80;;;5.25;;
23159;SDS011;11748;50.844;4.396;2023-04-24T12:15:26;11.75;;;5.82;;
23159;SDS011;11748;50.844;4.396;2023-04-24T12:17:55;7.65;;;4.90;;
23159;SDS011;11748;50.844;4.396;2023-04-24T12:20:29;8.38;;;5.25;;
23159;SDS011;11748;50.844;4.396;2023-04-24T12:22:59;8.20;;;5.15;;
23159;SDS011;11748;50.844;4.396;2023-04-24T12:25:27;7.90;;;4.90;;
23159;SDS011;11748;50.844;4.396;2023-04-24T12:30:30;8.32;;;5.00;;
23159;SDS011;11748;50.844;4.396;2023-04-24T12:32:59;5.93;;;4.25;;
23159;SDS011;11748;50.844;4.396;2023-04-24T12:35:28;5.35;;;4.32;;
23159;SDS011;11748;50.844;4.396;2023-04-24T12:38:21;8.57;;;4.75;;
23159;SDS011;11748;50.844;4.396;2023-04-24T12:40:46;4.78;;;3.55;;
23159;SDS011;11748;50.844;4.396;2023-04-24T12:43:14;9.18;;;4.50;;
23159;SDS011;11748;50.844;4.396;2023-04-24T12:45:41;7.18;;;5.05;;
23159;SDS011;11748;50.844;4.396;2023-04-24T12:48:07;7.32;;;4.03;;
23159;SDS011;11748;50.844;4.396;2023-04-24T12:50:33;6.95;;;3.55;;
23159;SDS011;11748;50.844;4.396;2023-04-24T12:52:58;6.15;;;3.83;;
23159;SDS011;11748;50.844;4.396;2023-04-24T12:55:24;9.40;;;4.35;;
23159;SDS011;11748;50.844;4.396;2023-04-24T12:57:50;6.15;;;3.58;;
23159;SDS011;11748;50.844;4.396;2023-04-24T13:00:18;7.47;;;3.92;;
23159;SDS011;11748;50.844;4.396;2023-04-24T13:02:43;6.43;;;3.70;;
23159;SDS011;11748;50.844;4.396;2023-04-24T13:05:10;6.25;;;3.53;;
23159;SDS011;11748;50.844;4.396;2023-04-24T13:07:39;5.90;;;3.30;;
23159;SDS011;11748;50.844;4.396;2023-04-24T13:10:06;7.32;;;3.80;;
23159;SDS011;11748;50.844;4.396;2023-04-24T13:12:34;6.93;;;3.53;;
23159;SDS011;11748;50.844;4.396;2023-04-24T13:15:00;7.65;;;3.40;;
23159;SDS011;11748;50.844;4.396;2023-04-24T13:17:27;6.05;;;3.53;;
23159;SDS011;11748;50.844;4.396;2023-04-24T13:19:55;7.80;;;3.35;;
23159;SDS011;11748;50.844;4.396;2023-04-24T13:22:22;6.05;;;3.20;;
23159;SDS011;11748;50.844;4.396;2023-04-24T13:24:49;5.32;;;3.33;;
23159;SDS011;11748;50.844;4.396;2023-04-24T13:27:17;9.02;;;3.55;;
23159;SDS011;11748;50.844;4.396;2023-04-24T13:29:44;5.57;;;2.92;;
23159;SDS011;11748;50.844;4.396;2023-04-24T13:35:33;5.47;;;2.42;;
23159;SDS011;11748;50.844;4.396;2023-04-24T13:37:59;4.18;;;2.67;;
23159;SDS011;11748;50.844;4.396;2023-04-24T13:40:26;9.32;;;3.15;;
23159;SDS011;11748;50.844;4.396;2023-04-24T13:42:54;5.28;;;3.03;;
23159;SDS011;11748;50.844;4.396;2023-04-24T13:45:19;6.22;;;2.67;;
23159;SDS011;11748;50.844;4.396;2023-04-24T13:47:45;4.60;;;2.60;;
23159;SDS011;11748;50.844;4.396;2023-04-24T13:50:11;5.28;;;2.30;;
23159;SDS011;11748;50.844;4.396;2023-04-24T13:52:37;7.15;;;2.60;;
23159;SDS011;11748;50.844;4.396;2023-04-24T13:55:03;6.97;;;2.70;;
23159;SDS011;11748;50.844;4.396;2023-04-24T13:57:28;7.47;;;2.58;;
23159;SDS011;11748;50.844;4.396;2023-04-24T13:59:56;7.70;;;2.67;;
23159;SDS011;11748;50.844;4.396;2023-04-24T14:02:26;4.82;;;2.08;;
23159;SDS011;11748;50.844;4.396;2023-04-24T14:04:52;4.38;;;2.30;;
23159;SDS011;11748;50.844;4.396;2023-04-24T14:07:18;3.78;;;1.92;;
23159;SDS011;11748;50.844;4.396;2023-04-24T14:09:43;3.92;;;2.20;;
23159;SDS011;11748;50.844;4.396;2023-04-24T14:12:09;5.88;;;2.28;;
23159;SDS011;11748;50.844;4.396;2023-04-24T14:14:35;4.60;;;1.90;;
23159;SDS011;11748;50.844;4.396;2023-04-24T14:17:01;5.05;;;2.10;;
23159;SDS011;11748;50.844;4.396;2023-04-24T14:19:26;2.72;;;1.60;;
23159;SDS011;11748;50.844;4.396;2023-04-24T14:21:52;5.30;;;1.80;;
23159;SDS011;11748;50.844;4.396;2023-04-24T14:24:20;2.70;;;1.73;;
23159;SDS011;11748;50.844;4.396;2023-04-24T14:26:46;2.38;;;1.25;;
23159;SDS011;11748;50.844;4.396;2023-04-24T14:29:11;4.20;;;1.65;;
23159;SDS011;11748;50.844;4.396;2023-04-24T14:31:37;2.78;;;1.77;;
23159;SDS011;11748;50.844;4.396;2023-04-24T14:34:03;3.08;;;1.67;;
23159;SDS011;11748;50.844;4.396;2023-04-24T14:36:29;2.55;;;1.45;;
23159;SDS011;11748;50.844;4.396;2023-04-24T14:38:56;5.38;;;2.22;;
23159;SDS011;11748;50.844;4.396;2023-04-24T14:41:24;2.92;;;1.63;;
23159;SDS011;11748;50.844;4.396;2023-04-24T14:43:50;5.93;;;1.92;;
23159;SDS011;11748;50.844;4.396;2023-04-24T14:46:16;5.00;;;2.00;;
23159;SDS011;11748;50.844;4.396;2023-04-24T14:48:41;6.38;;;2.20;;
23159;SDS011;11748;50.844;4.396;2023-04-24T14:51:07;6.10;;;2.10;;
23159;SDS011;11748;50.844;4.396;2023-04-24T14:53:33;6.57;;;1.88;;
23159;SDS011;11748;50.844;4.396;2023-04-24T14:55:59;5.13;;;1.90;;
23159;SDS011;11748;50.844;4.396;2023-04-24T14:58:25;5.20;;;1.85;;
23159;SDS011;11748;50.844;4.396;2023-04-24T15:00:51;3.10;;;1.63;;
23159;SDS011;11748;50.844;4.396;2023-04-24T15:03:19;4.07;;;2.25;;
23159;SDS011;11748;50.844;4.396;2023-04-24T15:05:46;4.88;;;1.70;;
23159;SDS011;11748;50.844;4.396;2023-04-24T15:08:13;5.35;;;1.52;;
23159;SDS011;11748;50.844;4.396;2023-04-24T15:10:40;4.22;;;1.90;;